Time;durP1;ratioP1;P1;durP2;ratioP2;P2;SDS_P1;SDS_P2;PMS_P1;PMS_P2;Temp;Humidity;BMP_temperature;BMP_pressure;BME280_temperature;BME280_humidity;BME280_pressure;Samples;Min_cycle;Max_cycle;Signal;HPM_P1;HPM_P2
2023/06/14 00:01:58;;;;;;;;;;;23.70;41.90;;;;;;5048476;28;19929;-77
2023/06/14 00:04:25;;;;;;;;;;;23.70;41.80;;;;;;5048605;28;19994;-76
2023/06/14 00:06:52;;;;;;;;;;;23.60;42.40;;;;;;5049042;28;19929;-76
2023/06/14 00:09:20;;;;;;;;;;;23.60;41.70;;;;;;5044306;28;19959;-77
2023/06/14 00:11:46;;;;;;;;;;;23.50;41.90;;;;;;5048401;28;19982;-76
2023/06/14 00:14:13;;;;;;;;;;;23.50;42.00;;;;;;5046211;28;19986;-77
2023/06/14 00:16:42;;;;;;;;;;;23.40;41.70;;;;;;5047658;28;19952;-77
2023/06/14 00:19:10;;;;;;;;;;;23.40;42.00;;;;;;5047552;28;19928;-76
2023/06/14 00:21:37;;;;;;;;;;;23.40;42.20;;;;;;5050115;28;19928;-76
2023/06/14 00:24:04;;;;;;;;;;;23.30;43.10;;;;;;5050707;28;19928;-77
2023/06/14 00:26:32;;;;;;;;;;;23.30;42.40;;;;;;5051756;28;19932;-77
2023/06/14 00:28:59;;;;;;;;;;;23.20;42.50;;;;;;5058148;28;20467;-76
2023/06/14 00:31:25;;;;;;;;;;;23.20;42.40;;;;;;5053949;28;19936;-77
2023/06/14 00:33:52;;;;;;;;;;;23.20;42.50;;;;;;5053934;28;19936;-77
2023/06/14 00:36:18;;;;;;;;;;;23.10;42.40;;;;;;5047096;28;19937;-77
2023/06/14 00:38:45;;;;;;;;;;;23.00;42.20;;;;;;5054729;28;19933;-76
2023/06/14 00:41:11;;;;;;;;;;;23.00;42.50;;;;;;5057813;28;20390;-76
2023/06/14 00:43:39;;;;;;;;;;;23.00;42.60;;;;;;5052837;28;19982;-76
2023/06/14 00:46:06;;;;;;;;;;;23.00;42.70;;;;;;5051507;28;19933;-76
2023/06/14 00:48:32;;;;;;;;;;;22.90;42.80;;;;;;5051941;28;19933;-76
2023/06/14 00:51:03;;;;;;;;;;;22.90;42.90;;;;;;5058083;28;19979;-76
2023/06/14 00:53:30;;;;;;;;;;;22.80;42.80;;;;;;5056908;28;19935;-76
2023/06/14 00:55:57;;;;;;;;;;;22.80;42.90;;;;;;5052389;28;20090;-76
2023/06/14 00:58:24;;;;;;;;;;;22.70;42.90;;;;;;5054664;28;19974;-76
2023/06/14 01:00:52;;;;;;;;;;;22.70;42.90;;;;;;5053408;28;20009;-76
2023/06/14 01:03:21;;;;;;;;;;;22.70;43.00;;;;;;5052427;28;19935;-77
2023/06/14 01:05:48;;;;;;;;;;;22.70;43.00;;;;;;5053277;28;19928;-77
2023/06/14 01:08:18;;;;;;;;;;;22.60;43.00;;;;;;5049733;28;20403;-76
2023/06/14 01:10:49;;;;;;;;;;;22.60;43.30;;;;;;5059683;28;19998;-76
2023/06/14 01:13:20;;;;;;;;;;;22.50;43.20;;;;;;5057473;28;19978;-76
2023/06/14 01:15:47;;;;;;;;;;;22.50;43.40;;;;;;5050117;28;19970;-76
2023/06/14 01:18:17;;;;;;;;;;;22.50;43.30;;;;;;5038740;28;19978;-76
2023/06/14 01:20:49;;;;;;;;;;;22.50;43.30;;;;;;5048991;28;19932;-76
2023/06/14 01:23:17;;;;;;;;;;;22.40;43.30;;;;;;5056754;28;19931;-76
2023/06/14 01:25:44;;;;;;;;;;;22.40;43.60;;;;;;5055599;28;19928;-76
2023/06/14 01:28:12;;;;;;;;;;;22.30;43.40;;;;;;5057546;28;20417;-76
2023/06/14 01:30:44;;;;;;;;;;;22.30;43.50;;;;;;5056089;28;20032;-76
2023/06/14 01:33:11;;;;;;;;;;;22.30;43.50;;;;;;5051904;28;19925;-76
2023/06/14 01:35:38;;;;;;;;;;;22.20;43.60;;;;;;5050046;28;20006;-76
2023/06/14 01:38:04;;;;;;;;;;;22.20;43.50;;;;;;5053520;28;19925;-76
2023/06/14 01:40:33;;;;;;;;;;;22.20;43.60;;;;;;5054714;28;20462;-76
2023/06/14 01:43:00;;;;;;;;;;;22.10;43.50;;;;;;5045869;28;19928;-76
2023/06/14 01:45:26;;;;;;;;;;;22.10;43.60;;;;;;5047791;28;20390;-76
2023/06/14 01:47:53;;;;;;;;;;;22.10;43.70;;;;;;5053132;28;19959;-76
2023/06/14 01:50:20;;;;;;;;;;;22.10;43.80;;;;;;5046486;28;19928;-76
2023/06/14 01:52:46;;;;;;;;;;;22.00;43.80;;;;;;5052896;28;20287;-76
2023/06/14 01:55:13;;;;;;;;;;;22.00;43.90;;;;;;5049795;28;19928;-76
2023/06/14 01:57:41;;;;;;;;;;;21.90;43.90;;;;;;5046698;28;19932;-76
2023/06/14 02:00:12;;;;;;;;;;;21.90;43.80;;;;;;5047502;28;19937;-76
2023/06/14 02:02:39;;;;;;;;;;;21.90;43.90;;;;;;5053029;28;20736;-76
2023/06/14 02:05:05;;;;;;;;;;;21.90;44.00;;;;;;5051437;28;19928;-76
2023/06/14 02:07:33;;;;;;;;;;;21.80;44.10;;;;;;5051225;28;19936;-76
2023/06/14 02:09:59;;;;;;;;;;;21.80;44.10;;;;;;5052013;28;20314;-76
2023/06/14 02:12:26;;;;;;;;;;;21.80;44.30;;;;;;5052015;28;19931;-76
2023/06/14 02:14:56;;;;;;;;;;;21.70;44.20;;;;;;5053516;28;19928;-76
2023/06/14 02:17:22;;;;;;;;;;;21.70;44.30;;;;;;5051710;28;20061;-76
2023/06/14 02:19:50;;;;;;;;;;;21.70;45.00;;;;;;5055074;28;19994;-75
2023/06/14 02:22:16;;;;;;;;;;;21.60;44.40;;;;;;5048829;28;19948;-76
2023/06/14 02:24:43;;;;;;;;;;;21.60;44.60;;;;;;5053688;28;19928;-77
2023/06/14 02:27:10;;;;;;;;;;;21.60;44.70;;;;;;5053271;28;19940;-76
2023/06/14 02:29:36;;;;;;;;;;;21.50;44.70;;;;;;5050380;28;19935;-76
2023/06/14 02:32:05;;;;;;;;;;;21.50;44.70;;;;;;5049768;28;20655;-76
2023/06/14 02:34:32;;;;;;;;;;;21.50;44.80;;;;;;5053950;28;20699;-76
2023/06/14 02:36:59;;;;;;;;;;;21.40;44.80;;;;;;5047086;28;20005;-76
2023/06/14 02:39:25;;;;;;;;;;;21.40;45.10;;;;;;5050254;28;19928;-75
2023/06/14 02:41:52;;;;;;;;;;;21.40;45.00;;;;;;5052335;28;19936;-76
2023/06/14 02:44:19;;;;;;;;;;;21.30;45.10;;;;;;5052277;28;20055;-76
2023/06/14 02:46:46;;;;;;;;;;;21.30;45.20;;;;;;5055406;28;19942;-76
2023/06/14 02:49:14;;;;;;;;;;;21.30;45.20;;;;;;5048463;28;19990;-76
2023/06/14 02:51:40;;;;;;;;;;;21.20;45.20;;;;;;5053333;28;19986;-76
2023/06/14 02:54:07;;;;;;;;;;;21.20;45.30;;;;;;5051257;28;19929;-76
2023/06/14 02:56:33;;;;;;;;;;;21.20;45.40;;;;;;5053789;28;19928;-76
2023/06/14 02:59:00;;;;;;;;;;;21.10;45.50;;;;;;5052158;28;19936;-75
2023/06/14 03:01:33;;;;;;;;;;;21.10;45.50;;;;;;5048396;28;19968;-76
2023/06/14 03:04:00;;;;;;;;;;;21.10;45.60;;;;;;5055757;28;20707;-76
2023/06/14 03:06:29;;;;;;;;;;;21.10;45.70;;;;;;5048350;28;19929;-75
2023/06/14 03:08:59;;;;;;;;;;;21.00;45.80;;;;;;5054916;28;19934;-76
2023/06/14 03:11:25;;;;;;;;;;;21.00;45.80;;;;;;5055629;28;20000;-76
2023/06/14 03:13:52;;;;;;;;;;;21.00;45.90;;;;;;5054367;28;19947;-76
2023/06/14 03:16:20;;;;;;;;;;;21.00;45.90;;;;;;5059625;28;20001;-75
2023/06/14 03:18:46;;;;;;;;;;;20.90;46.50;;;;;;5056811;28;20026;-76
2023/06/14 03:21:15;;;;;;;;;;;20.90;46.00;;;;;;5048667;28;19937;-75
2023/06/14 03:23:43;;;;;;;;;;;20.90;46.20;;;;;;5045187;28;19938;-75
2023/06/14 03:26:12;;;;;;;;;;;20.80;46.10;;;;;;5044256;28;19929;-76
2023/06/14 03:28:39;;;;;;;;;;;20.80;46.10;;;;;;5046387;28;20523;-75
2023/06/14 03:31:06;;;;;;;;;;;20.80;46.10;;;;;;5045279;28;20609;-75
2023/06/14 03:33:32;;;;;;;;;;;20.70;46.20;;;;;;5048681;28;19932;-76
2023/06/14 03:35:59;;;;;;;;;;;20.70;46.20;;;;;;5047714;28;19929;-76
2023/06/14 03:38:25;;;;;;;;;;;20.70;46.30;;;;;;5045816;28;19978;-75
2023/06/14 03:40:53;;;;;;;;;;;20.60;46.40;;;;;;5049171;28;19938;-76
2023/06/14 03:43:20;;;;;;;;;;;20.60;46.50;;;;;;5044899;28;20013;-75
2023/06/14 03:45:46;;;;;;;;;;;20.60;46.60;;;;;;5042040;28;20410;-76
2023/06/14 03:48:13;;;;;;;;;;;20.60;46.70;;;;;;5047375;28;20403;-76
2023/06/14 03:50:40;;;;;;;;;;;20.60;46.70;;;;;;5046245;28;20288;-75
2023/06/14 03:53:06;;;;;;;;;;;20.50;46.80;;;;;;5050597;28;19928;-75
2023/06/14 03:55:33;;;;;;;;;;;20.50;46.80;;;;;;5055551;28;20348;-76
2023/06/14 03:58:01;;;;;;;;;;;20.50;46.90;;;;;;5056002;28;19968;-76
2023/06/14 04:00:28;;;;;;;;;;;20.40;46.90;;;;;;5049726;28;19935;-75
2023/06/14 04:02:55;;;;;;;;;;;20.40;47.00;;;;;;5057046;28;20394;-76
2023/06/14 04:05:21;;;;;;;;;;;20.40;47.10;;;;;;5055005;28;19982;-76
2023/06/14 04:07:48;;;;;;;;;;;20.40;47.20;;;;;;5053595;28;19929;-75
2023/06/14 04:10:16;;;;;;;;;;;20.40;47.20;;;;;;5058158;28;20010;-76
2023/06/14 04:12:42;;;;;;;;;;;20.30;47.20;;;;;;5050671;28;20424;-76
2023/06/14 04:15:11;;;;;;;;;;;20.30;47.30;;;;;;5057341;28;20333;-75
2023/06/14 04:17:38;;;;;;;;;;;20.30;47.40;;;;;;5052372;28;19950;-75
2023/06/14 04:20:06;;;;;;;;;;;20.30;47.50;;;;;;5050758;28;19932;-75
2023/06/14 04:22:33;;;;;;;;;;;20.20;47.50;;;;;;5057189;28;19929;-76
2023/06/14 04:25:00;;;;;;;;;;;20.20;47.50;;;;;;5059097;28;20680;-75
2023/06/14 04:27:27;;;;;;;;;;;20.20;47.60;;;;;;5054242;28;20038;-75
2023/06/14 04:29:56;;;;;;;;;;;20.10;47.70;;;;;;5053253;28;20368;-75
2023/06/14 04:32:26;;;;;;;;;;;20.10;47.80;;;;;;5053940;28;20327;-75
2023/06/14 04:34:53;;;;;;;;;;;20.10;47.80;;;;;;5046670;28;19939;-76
2023/06/14 04:37:20;;;;;;;;;;;20.10;48.00;;;;;;5049564;28;19933;-76
2023/06/14 04:39:47;;;;;;;;;;;20.10;48.00;;;;;;5049532;28;19928;-76
2023/06/14 04:42:14;;;;;;;;;;;20.00;48.10;;;;;;5050336;28;19944;-76
2023/06/14 04:44:41;;;;;;;;;;;20.00;48.10;;;;;;5050101;28;19928;-75
2023/06/14 04:47:08;;;;;;;;;;;20.00;48.20;;;;;;5049208;28;19929;-75
2023/06/14 04:49:35;;;;;;;;;;;20.00;48.40;;;;;;5046950;28;20636;-75
2023/06/14 04:52:02;;;;;;;;;;;20.00;48.50;;;;;;5051915;28;20612;-75
2023/06/14 04:54:31;;;;;;;;;;;19.90;48.60;;;;;;5049213;28;20395;-75
2023/06/14 04:56:57;;;;;;;;;;;19.90;48.80;;;;;;5053101;28;19936;-75
2023/06/14 04:59:24;;;;;;;;;;;19.90;48.90;;;;;;5048353;28;19936;-76
2023/06/14 05:01:51;;;;;;;;;;;19.90;49.00;;;;;;5044235;28;21279;-76
2023/06/14 05:04:18;;;;;;;;;;;19.80;49.10;;;;;;5044335;28;19928;-76
2023/06/14 05:06:47;;;;;;;;;;;19.80;49.20;;;;;;5042558;28;20299;-76
2023/06/14 05:09:14;;;;;;;;;;;19.80;49.40;;;;;;5043092;28;19924;-75
2023/06/14 05:11:43;;;;;;;;;;;19.80;49.50;;;;;;5044999;28;19928;-75
2023/06/14 05:14:10;;;;;;;;;;;19.80;49.60;;;;;;5043842;28;19939;-76
2023/06/14 05:16:37;;;;;;;;;;;19.80;49.60;;;;;;5042482;28;19937;-76
2023/06/14 05:19:04;;;;;;;;;;;19.80;49.60;;;;;;5043467;28;19982;-76
2023/06/14 05:21:31;;;;;;;;;;;19.70;50.70;;;;;;5044174;28;19928;-76
2023/06/14 05:23:59;;;;;;;;;;;19.60;51.00;;;;;;5042184;28;19928;-76
2023/06/14 05:26:28;;;;;;;;;;;19.60;51.10;;;;;;5044893;28;19928;-75
2023/06/14 05:28:56;;;;;;;;;;;19.50;51.20;;;;;;5045910;28;19928;-76
2023/06/14 05:31:22;;;;;;;;;;;19.50;51.20;;;;;;5043984;28;20749;-76
2023/06/14 05:33:49;;;;;;;;;;;19.40;51.20;;;;;;5045857;28;20005;-76
2023/06/14 05:36:15;;;;;;;;;;;19.50;51.40;;;;;;5051339;28;20007;-75
2023/06/14 05:38:42;;;;;;;;;;;19.50;51.40;;;;;;5047437;28;19932;-76
2023/06/14 05:41:10;;;;;;;;;;;19.50;51.40;;;;;;5053858;28;20603;-71
2023/06/14 05:43:36;;;;;;;;;;;19.50;51.40;;;;;;5052273;28;20045;-71
2023/06/14 05:46:03;;;;;;;;;;;19.50;51.40;;;;;;5059279;28;19991;-71
2023/06/14 05:48:30;;;;;;;;;;;19.50;51.50;;;;;;5057764;28;19932;-72
2023/06/14 05:50:56;;;;;;;;;;;19.50;51.50;;;;;;5058521;28;19970;-71
2023/06/14 05:53:23;;;;;;;;;;;19.50;51.50;;;;;;5056178;28;20001;-71
2023/06/14 05:55:50;;;;;;;;;;;19.50;51.50;;;;;;5048648;28;19929;-71
2023/06/14 05:58:18;;;;;;;;;;;19.50;51.60;;;;;;5049308;28;20043;-72
2023/06/14 06:00:44;;;;;;;;;;;19.60;51.60;;;;;;5055720;28;19929;-73
2023/06/14 06:03:11;;;;;;;;;;;19.60;51.70;;;;;;5054168;28;20321;-70
2023/06/14 06:05:37;;;;;;;;;;;19.60;51.60;;;;;;5053396;28;19924;-71
2023/06/14 06:08:04;;;;;;;;;;;19.50;51.50;;;;;;5052287;28;19928;-71
2023/06/14 06:10:30;;;;;;;;;;;19.60;51.40;;;;;;5058540;28;19940;-72
2023/06/14 06:12:57;;;;;;;;;;;19.60;51.40;;;;;;5055297;28;20718;-72
2023/06/14 06:15:25;;;;;;;;;;;19.60;51.30;;;;;;5061396;28;19958;-71
2023/06/14 06:17:52;;;;;;;;;;;19.60;51.30;;;;;;5054524;28;19928;-71
2023/06/14 06:20:18;;;;;;;;;;;19.60;51.40;;;;;;5057119;28;20511;-71
2023/06/14 06:22:45;;;;;;;;;;;19.60;51.30;;;;;;5052296;28;19933;-72
2023/06/14 06:25:11;;;;;;;;;;;19.70;51.30;;;;;;5051728;28;19956;-71
2023/06/14 06:27:40;;;;;;;;;;;19.60;51.30;;;;;;5050915;28;19940;-71
2023/06/14 06:30:07;;;;;;;;;;;19.70;51.30;;;;;;5055735;28;19935;-70
2023/06/14 06:32:35;;;;;;;;;;;19.70;51.20;;;;;;5058396;28;19937;-74
2023/06/14 06:35:01;;;;;;;;;;;19.70;51.20;;;;;;5051583;28;19955;-71
2023/06/14 06:37:28;;;;;;;;;;;19.70;51.10;;;;;;5058201;28;19929;-72
2023/06/14 06:39:54;;;;;;;;;;;19.70;51.10;;;;;;5058413;28;19932;-70
2023/06/14 06:42:21;;;;;;;;;;;19.70;51.00;;;;;;5056444;28;20394;-72
2023/06/14 06:44:47;;;;;;;;;;;19.70;51.00;;;;;;5054060;28;20051;-72
2023/06/14 06:47:14;;;;;;;;;;;19.80;51.10;;;;;;5060067;28;20458;-71
2023/06/14 06:49:42;;;;;;;;;;;19.80;51.00;;;;;;5055808;28;20472;-72
2023/06/14 06:52:09;;;;;;;;;;;19.80;51.00;;;;;;5056263;28;20441;-72
2023/06/14 06:54:35;;;;;;;;;;;19.80;50.90;;;;;;5058487;28;19932;-71
2023/06/14 06:57:02;;;;;;;;;;;19.80;50.90;;;;;;5051784;28;20437;-76
2023/06/14 06:59:28;;;;;;;;;;;19.80;50.90;;;;;;5058407;28;20018;-76
2023/06/14 07:01:55;;;;;;;;;;;19.80;50.80;;;;;;5047188;28;19928;-77
2023/06/14 07:04:21;;;;;;;;;;;19.90;50.80;;;;;;5040268;28;19928;-77
2023/06/14 07:06:49;;;;;;;;;;;19.90;50.90;;;;;;5041082;28;20437;-78
2023/06/14 07:09:16;;;;;;;;;;;19.90;50.90;;;;;;5033173;28;19928;-77
2023/06/14 07:11:44;;;;;;;;;;;19.90;50.90;;;;;;5036867;28;19929;-76
2023/06/14 07:14:11;;;;;;;;;;;19.90;51.40;;;;;;5036889;28;19933;-76
2023/06/14 07:16:37;;;;;;;;;;;19.90;50.70;;;;;;5038919;28;19936;-75
2023/06/14 07:19:04;;;;;;;;;;;20.00;50.70;;;;;;5036671;28;20021;-76
2023/06/14 07:21:30;;;;;;;;;;;20.00;50.70;;;;;;5038411;28;19928;-76
2023/06/14 07:23:58;;;;;;;;;;;20.00;50.80;;;;;;5038019;28;19978;-75
2023/06/14 07:26:25;;;;;;;;;;;20.00;50.70;;;;;;5038533;28;19951;-76
2023/06/14 07:28:52;;;;;;;;;;;20.00;50.70;;;;;;5039279;28;19943;-76
2023/06/14 07:31:19;;;;;;;;;;;20.00;51.10;;;;;;5038322;28;19939;-78
2023/06/14 07:33:45;;;;;;;;;;;20.10;50.40;;;;;;5038900;28;19928;-76
2023/06/14 07:36:12;;;;;;;;;;;20.10;50.40;;;;;;5038897;28;20116;-75
2023/06/14 07:38:40;;;;;;;;;;;20.00;50.30;;;;;;5038028;28;19955;-75
2023/06/14 07:41:08;;;;;;;;;;;20.10;50.30;;;;;;5054590;28;19951;-75
2023/06/14 07:43:34;;;;;;;;;;;20.10;50.30;;;;;;5055046;28;19929;-76
2023/06/14 07:46:01;;;;;;;;;;;20.10;50.30;;;;;;5057754;28;20586;-76
2023/06/14 07:48:28;;;;;;;;;;;20.20;50.30;;;;;;5059269;28;19982;-76
2023/06/14 07:50:55;;;;;;;;;;;20.20;50.40;;;;;;5049710;28;20003;-75
2023/06/14 07:53:21;;;;;;;;;;;20.20;50.20;;;;;;5058497;28;19959;-76
2023/06/14 07:55:48;;;;;;;;;;;20.20;50.10;;;;;;5061723;28;20385;-76
2023/06/14 07:58:16;;;;;;;;;;;20.20;50.30;;;;;;5062897;28;20009;-75
2023/06/14 08:00:42;;;;;;;;;;;20.30;50.20;;;;;;5051784;28;20003;-75
2023/06/14 08:03:09;;;;;;;;;;;20.30;50.30;;;;;;5061098;28;19928;-75
2023/06/14 08:05:36;;;;;;;;;;;20.30;50.30;;;;;;5051836;28;19928;-75
2023/06/14 08:08:02;;;;;;;;;;;20.30;50.10;;;;;;5052176;28;19928;-75
2023/06/14 08:10:29;;;;;;;;;;;20.30;50.00;;;;;;5045386;28;19932;-76
2023/06/14 08:12:55;;;;;;;;;;;20.40;49.90;;;;;;5049252;28;20270;-75
2023/06/14 08:15:23;;;;;;;;;;;20.40;49.90;;;;;;5047330;28;19932;-76
2023/06/14 08:17:50;;;;;;;;;;;20.40;49.80;;;;;;5048770;28;19933;-77
2023/06/14 08:20:16;;;;;;;;;;;20.40;49.80;;;;;;5049770;28;20430;-76
2023/06/14 08:22:46;;;;;;;;;;;20.50;49.90;;;;;;5048435;28;19936;-75
2023/06/14 08:25:13;;;;;;;;;;;20.50;49.90;;;;;;5047446;28;19935;-76
2023/06/14 08:27:39;;;;;;;;;;;20.50;49.80;;;;;;5049632;28;19939;-75
2023/06/14 08:30:07;;;;;;;;;;;20.60;49.70;;;;;;5047264;28;20443;-75
2023/06/14 08:32:35;;;;;;;;;;;20.60;50.10;;;;;;5047975;28;19932;-75
2023/06/14 08:35:02;;;;;;;;;;;20.60;49.50;;;;;;5047734;28;19929;-75
2023/06/14 08:37:29;;;;;;;;;;;20.60;49.50;;;;;;5037750;28;20006;-75
2023/06/14 08:39:56;;;;;;;;;;;20.70;49.70;;;;;;5052000;28;20027;-76
2023/06/14 08:42:24;;;;;;;;;;;20.70;49.50;;;;;;5059432;28;19928;-75
2023/06/14 08:44:51;;;;;;;;;;;20.70;49.30;;;;;;5046716;28;19974;-76
2023/06/14 08:47:18;;;;;;;;;;;20.70;49.50;;;;;;5053872;28;19928;-76
2023/06/14 08:49:48;;;;;;;;;;;20.80;49.40;;;;;;5049794;28;20587;-75
2023/06/14 08:52:18;;;;;;;;;;;20.80;49.30;;;;;;5052746;28;19939;-75
2023/06/14 08:54:48;;;;;;;;;;;20.80;49.30;;;;;;5047362;28;19932;-75
2023/06/14 08:57:16;;;;;;;;;;;20.90;49.20;;;;;;5049081;28;20909;-75
2023/06/14 08:59:48;;;;;;;;;;;20.90;49.20;;;;;;5049208;28;19928;-76
2023/06/14 09:02:17;;;;;;;;;;;21.00;49.10;;;;;;5051548;28;19925;-75
2023/06/14 09:04:44;;;;;;;;;;;21.00;49.00;;;;;;5048721;28;19975;-77
2023/06/14 09:07:12;;;;;;;;;;;21.00;49.00;;;;;;5050366;28;20395;-76
2023/06/14 09:09:39;;;;;;;;;;;21.10;49.00;;;;;;5045639;28;19929;-77
2023/06/14 09:12:10;;;;;;;;;;;21.10;49.30;;;;;;5055202;28;19959;-77
2023/06/14 09:14:38;;;;;;;;;;;21.20;49.20;;;;;;5048136;28;19928;-77
2023/06/14 09:17:05;;;;;;;;;;;21.20;49.20;;;;;;5050699;28;20310;-76
2023/06/14 09:19:31;;;;;;;;;;;21.20;49.00;;;;;;5055747;28;20488;-75
2023/06/14 09:21:58;;;;;;;;;;;21.30;48.90;;;;;;5056329;28;20865;-76
2023/06/14 09:24:26;;;;;;;;;;;21.30;48.90;;;;;;5054769;28;19932;-76
2023/06/14 09:26:52;;;;;;;;;;;21.30;48.70;;;;;;5054002;28;19928;-76
2023/06/14 09:29:19;;;;;;;;;;;21.40;48.40;;;;;;5056439;28;20344;-77
2023/06/14 09:31:46;;;;;;;;;;;21.40;48.40;;;;;;5045216;28;19929;-77
2023/06/14 09:34:13;;;;;;;;;;;21.40;48.20;;;;;;5047157;28;20229;-76
2023/06/14 09:36:40;;;;;;;;;;;21.50;47.90;;;;;;5045650;28;19940;-76
2023/06/14 09:39:08;;;;;;;;;;;21.50;47.60;;;;;;5047794;28;19928;-75
2023/06/14 09:41:36;;;;;;;;;;;21.60;47.60;;;;;;5050025;28;19933;-76
2023/06/14 09:44:04;;;;;;;;;;;21.60;47.60;;;;;;5046531;28;19932;-77
2023/06/14 09:46:30;;;;;;;;;;;21.70;48.30;;;;;;5048677;28;19929;-76
2023/06/14 09:48:57;;;;;;;;;;;21.70;47.70;;;;;;5042225;28;19929;-76
2023/06/14 09:51:24;;;;;;;;;;;21.80;47.60;;;;;;5041816;28;19979;-76
2023/06/14 09:53:51;;;;;;;;;;;21.90;47.40;;;;;;5047096;28;19935;-77
2023/06/14 09:56:20;;;;;;;;;;;21.90;47.00;;;;;;5043814;28;20551;-76
2023/06/14 09:58:48;;;;;;;;;;;22.00;46.80;;;;;;5040047;28;19937;-76
2023/06/14 10:01:15;;;;;;;;;;;22.10;46.70;;;;;;5044353;28;19936;-76
2023/06/14 10:03:42;;;;;;;;;;;22.10;46.70;;;;;;5044777;28;19971;-76
2023/06/14 10:06:09;;;;;;;;;;;22.20;46.40;;;;;;5039102;28;20566;-76
2023/06/14 10:08:37;;;;;;;;;;;22.30;46.50;;;;;;5041033;28;19946;-75
2023/06/14 10:11:03;;;;;;;;;;;22.30;46.30;;;;;;5044593;28;20033;-77
2023/06/14 10:13:33;;;;;;;;;;;22.40;46.20;;;;;;5044801;28;19940;-77
2023/06/14 10:16:06;;;;;;;;;;;22.50;46.00;;;;;;5044261;28;19932;-77
2023/06/14 10:18:36;;;;;;;;;;;22.60;45.90;;;;;;5053417;28;19927;-76
2023/06/14 10:21:08;;;;;;;;;;;22.60;45.80;;;;;;5052115;28;20357;-76
2023/06/14 10:23:38;;;;;;;;;;;22.70;45.70;;;;;;5051688;28;19932;-76
2023/06/14 10:26:04;;;;;;;;;;;22.70;45.50;;;;;;5055020;28;20307;-76
2023/06/14 10:28:32;;;;;;;;;;;22.80;45.40;;;;;;5052024;28;19935;-76
2023/06/14 10:31:07;;;;;;;;;;;22.90;45.20;;;;;;5049711;28;19932;-76
2023/06/14 10:33:34;;;;;;;;;;;22.90;45.00;;;;;;5050897;28;20462;-77
2023/06/14 10:36:07;;;;;;;;;;;23.00;45.00;;;;;;5048217;28;19939;-76
2023/06/14 10:38:35;;;;;;;;;;;23.10;44.40;;;;;;5045539;28;20387;-76
2023/06/14 10:41:02;;;;;;;;;;;23.20;44.00;;;;;;5047616;28;19928;-76
2023/06/14 10:43:29;;;;;;;;;;;23.20;44.10;;;;;;5049776;28;19935;-77
2023/06/14 10:46:14;;;;;;;;;;;23.30;44.40;;;;;;5051864;28;19932;-77
2023/06/14 10:48:42;;;;;;;;;;;23.40;44.20;;;;;;5055612;28;19958;-76
2023/06/14 10:51:16;;;;;;;;;;;23.50;44.00;;;;;;5053640;28;19974;-77
2023/06/14 10:53:43;;;;;;;;;;;23.50;43.90;;;;;;5046771;28;19937;-75
2023/06/14 10:56:11;;;;;;;;;;;23.60;43.40;;;;;;5047684;28;20369;-77
2023/06/14 10:58:37;;;;;;;;;;;23.70;43.50;;;;;;5058213;28;20082;-76
2023/06/14 11:01:04;;;;;;;;;;;23.80;43.70;;;;;;5059162;28;19934;-76
2023/06/14 11:03:38;;;;;;;;;;;23.80;43.60;;;;;;5057777;28;19929;-76
2023/06/14 11:06:13;;;;;;;;;;;23.90;43.50;;;;;;5049077;28;19932;-77
2023/06/14 11:08:55;;;;;;;;;;;23.90;43.40;;;;;;5050393;28;19932;-75
2023/06/14 11:11:23;;;;;;;;;;;24.00;43.50;;;;;;5055480;28;19932;-76
2023/06/14 11:13:49;;;;;;;;;;;24.00;43.10;;;;;;5051994;28;19928;-77
2023/06/14 11:16:16;;;;;;;;;;;24.00;43.20;;;;;;5057606;28;20102;-77
2023/06/14 11:18:44;;;;;;;;;;;24.00;43.30;;;;;;5058407;28;19928;-77
2023/06/14 11:21:16;;;;;;;;;;;24.10;43.20;;;;;;5058011;28;19928;-76
2023/06/14 11:23:42;;;;;;;;;;;24.10;43.30;;;;;;5054469;28;19928;-76
2023/06/14 11:26:09;;;;;;;;;;;24.20;42.70;;;;;;5047942;28;19932;-77
2023/06/14 11:28:36;;;;;;;;;;;24.20;42.80;;;;;;5043101;28;19944;-76
2023/06/14 11:31:04;;;;;;;;;;;24.20;43.10;;;;;;5038652;28;19952;-77
2023/06/14 11:33:30;;;;;;;;;;;24.30;42.80;;;;;;5040434;28;19933;-76
2023/06/14 11:35:57;;;;;;;;;;;24.30;42.90;;;;;;5042655;28;19928;-76
2023/06/14 11:38:25;;;;;;;;;;;24.40;42.80;;;;;;5039170;28;19940;-77
2023/06/14 11:40:52;;;;;;;;;;;24.50;42.80;;;;;;5042398;28;21472;-77
2023/06/14 11:43:18;;;;;;;;;;;24.50;42.10;;;;;;5044697;28;19936;-76
2023/06/14 11:45:48;;;;;;;;;;;24.50;42.70;;;;;;5045296;28;20006;-76
2023/06/14 11:48:15;;;;;;;;;;;24.60;42.40;;;;;;5048278;28;19940;-76
2023/06/14 11:50:41;;;;;;;;;;;24.60;42.50;;;;;;5043593;28;19928;-77
2023/06/14 11:53:10;;;;;;;;;;;24.70;42.60;;;;;;5048145;28;19929;-79
2023/06/14 11:55:39;;;;;;;;;;;24.80;42.50;;;;;;5049479;28;19932;-77
2023/06/14 11:58:05;;;;;;;;;;;24.90;41.50;;;;;;5055613;28;19955;-78
2023/06/14 12:00:32;;;;;;;;;;;24.90;41.00;;;;;;5058322;28;19928;-77
2023/06/14 12:02:59;;;;;;;;;;;25.00;41.50;;;;;;5056154;28;19954;-77
2023/06/14 12:05:26;;;;;;;;;;;25.10;41.90;;;;;;5058890;28;19979;-76
2023/06/14 12:07:59;;;;;;;;;;;25.10;42.00;;;;;;5048031;28;19924;-76
2023/06/14 12:10:26;;;;;;;;;;;25.20;41.80;;;;;;5051780;28;19928;-77
2023/06/14 12:12:58;;;;;;;;;;;25.20;42.10;;;;;;5057201;28;19928;-77
2023/06/14 12:15:24;;;;;;;;;;;25.30;42.20;;;;;;5059876;28;20470;-78
2023/06/14 12:17:52;;;;;;;;;;;25.40;41.60;;;;;;5053860;28;20014;-77
2023/06/14 12:20:21;;;;;;;;;;;25.40;41.60;;;;;;5060775;28;19928;-77
2023/06/14 12:22:51;;;;;;;;;;;25.30;41.50;;;;;;5057579;28;19928;-76
2023/06/14 12:25:26;;;;;;;;;;;25.40;41.30;;;;;;5054036;28;19925;-77
2023/06/14 12:27:54;;;;;;;;;;;25.40;40.90;;;;;;5058382;28;19928;-76
2023/06/14 12:30:21;;;;;;;;;;;25.40;39.20;;;;;;5054030;28;19929;-76
2023/06/14 12:32:48;;;;;;;;;;;25.50;40.00;;;;;;5044503;28;19932;-78
2023/06/14 12:35:14;;;;;;;;;;;25.50;40.30;;;;;;5054993;28;19928;-77
2023/06/14 12:37:41;;;;;;;;;;;25.50;40.30;;;;;;5055779;28;19929;-76
2023/06/14 12:40:08;;;;;;;;;;;25.60;40.50;;;;;;5047423;28;19936;-76
2023/06/14 12:42:35;;;;;;;;;;;25.60;40.20;;;;;;5060371;28;20028;-76
2023/06/14 12:45:03;;;;;;;;;;;25.70;40.90;;;;;;5049250;28;19928;-76
2023/06/14 12:47:30;;;;;;;;;;;25.70;41.10;;;;;;5058592;28;19928;-76
2023/06/14 12:49:57;;;;;;;;;;;25.70;41.30;;;;;;5057607;28;20351;-77
2023/06/14 12:52:23;;;;;;;;;;;25.70;41.50;;;;;;5048148;28;19929;-78
2023/06/14 12:54:50;;;;;;;;;;;25.60;41.20;;;;;;5054399;28;19929;-78
2023/06/14 12:57:16;;;;;;;;;;;25.60;41.30;;;;;;5050971;28;20078;-80
2023/06/14 12:59:43;;;;;;;;;;;25.60;40.80;;;;;;5040003;28;19982;-82
2023/06/14 13:02:17;;;;;;;;;;;25.60;40.40;;;;;;5036591;28;19971;-79
2023/06/14 13:04:44;;;;;;;;;;;25.60;40.00;;;;;;5037925;28;19932;-78
2023/06/14 13:07:11;;;;;;;;;;;25.60;40.30;;;;;;5040464;28;19931;-79
2023/06/14 13:09:38;;;;;;;;;;;25.70;40.20;;;;;;5036380;28;19929;-79
2023/06/14 13:12:05;;;;;;;;;;;25.70;40.50;;;;;;5034035;28;20540;-79
2023/06/14 13:14:32;;;;;;;;;;;25.70;40.10;;;;;;5035962;28;19964;-79
2023/06/14 13:16:58;;;;;;;;;;;25.80;40.30;;;;;;5037000;28;19939;-80
2023/06/14 13:19:26;;;;;;;;;;;25.80;40.50;;;;;;5036070;28;19925;-79
2023/06/14 13:21:53;;;;;;;;;;;25.90;41.00;;;;;;5036752;28;19928;-79
2023/06/14 13:24:19;;;;;;;;;;;25.90;41.40;;;;;;5037661;28;19932;-78
2023/06/14 13:26:46;;;;;;;;;;;25.90;41.80;;;;;;5036424;28;19925;-79
2023/06/14 13:29:12;;;;;;;;;;;26.00;40.90;;;;;;5037806;28;20326;-81
2023/06/14 13:31:39;;;;;;;;;;;26.00;40.80;;;;;;5037844;28;19929;-79
2023/06/14 13:34:05;;;;;;;;;;;26.00;41.20;;;;;;5036100;28;19929;-79
2023/06/14 13:36:33;;;;;;;;;;;26.10;40.60;;;;;;5035775;28;20686;-80
2023/06/14 13:39:00;;;;;;;;;;;26.10;40.90;;;;;;5037454;28;20289;-79
2023/06/14 13:41:31;;;;;;;;;;;26.10;40.40;;;;;;5047816;28;21449;-78
2023/06/14 13:43:58;;;;;;;;;;;26.10;40.50;;;;;;5060681;28;19985;-78
2023/06/14 13:46:25;;;;;;;;;;;26.20;40.50;;;;;;5054032;28;19982;-79
2023/06/14 13:48:51;;;;;;;;;;;26.20;40.40;;;;;;5046879;28;19937;-80
2023/06/14 13:51:18;;;;;;;;;;;26.20;40.00;;;;;;5056114;28;19935;-75
2023/06/14 13:53:48;;;;;;;;;;;26.30;39.70;;;;;;5049361;28;19936;-75
2023/06/14 13:56:15;;;;;;;;;;;26.30;39.20;;;;;;5056824;28;19998;-76
2023/06/14 13:58:41;;;;;;;;;;;26.30;38.70;;;;;;5051060;28;19929;-75
2023/06/14 14:01:08;;;;;;;;;;;26.40;39.00;;;;;;5057064;28;20001;-75
2023/06/14 14:03:35;;;;;;;;;;;26.40;39.30;;;;;;5051840;28;19937;-76
2023/06/14 14:06:02;;;;;;;;;;;26.50;39.60;;;;;;5050059;28;19932;-75
2023/06/14 14:08:28;;;;;;;;;;;26.60;39.30;;;;;;5051699;28;20483;-74
2023/06/14 14:10:56;;;;;;;;;;;26.60;39.20;;;;;;5046918;28;20853;-75
2023/06/14 14:13:23;;;;;;;;;;;26.70;39.30;;;;;;5049813;28;19933;-75
2023/06/14 14:15:50;;;;;;;;;;;26.70;39.60;;;;;;5047093;28;19982;-75
2023/06/14 14:18:17;;;;;;;;;;;26.80;39.40;;;;;;5050160;28;19990;-75